Time;durP1;ratioP1;P1;durP2;ratioP2;P2;SDS_P1;SDS_P2;PMS_P1;PMS_P2;Temp;Humidity;BMP_temperature;BMP_pressure;BME280_temperature;BME280_humidity;BME280_pressure;Samples;Min_cycle;Max_cycle;Signal;HPM_P1;HPM_P2
2023/10/22 00:00:46;;;;;;;0.10;0.10;;;12.30;99.90;;;;;;5091730;28;20051;-62
2023/10/22 00:03:12;;;;;;;0.10;0.10;;;12.60;99.90;;;;;;5092804;28;20468;-62
2023/10/22 00:05:37;;;;;;;0.35;0.35;;;12.50;99.90;;;;;;5092852;28;20094;-62
2023/10/22 00:08:03;;;;;;;0.17;0.17;;;12.60;99.90;;;;;;5093148;28;20129;-62
2023/10/22 00:10:29;;;;;;;0.15;0.15;;;12.50;99.90;;;;;;5093439;28;20040;-62
2023/10/22 00:12:55;;;;;;;0.10;0.10;;;12.30;99.90;;;;;;5092551;28;20036;-62
2023/10/22 00:15:20;;;;;;;0.20;0.20;;;12.80;99.90;;;;;;5093433;28;20463;-61
2023/10/22 00:17:47;;;;;;;0.30;0.30;;;12.40;99.90;;;;;;5092502;28;20048;-61
2023/10/22 00:20:13;;;;;;;0.15;0.15;;;12.70;99.90;;;;;;5093796;28;20058;-61
2023/10/22 00:22:39;;;;;;;0.10;0.10;;;12.50;99.90;;;;;;5093201;28;20051;-62
2023/10/22 00:25:06;;;;;;;0.10;0.10;;;12.40;99.90;;;;;;5093372;28;20040;-62
2023/10/22 00:27:34;;;;;;;0.10;0.10;;;12.50;99.90;;;;;;5093313;28;20053;-62
2023/10/22 00:30:00;;;;;;;0.50;0.25;;;12.80;99.90;;;;;;5092879;28;20100;-62
2023/10/22 00:32:26;;;;;;;;;;;12.40;99.90;;;;;;5093482;28;20040;-61
2023/10/22 00:34:52;;;;;;;0.10;0.10;;;12.50;99.90;;;;;;5092877;28;19931;-62
2023/10/22 00:37:18;;;;;;;0.20;0.20;;;12.50;99.90;;;;;;5093148;28;20055;-62
2023/10/22 00:39:43;;;;;;;0.20;0.20;;;12.60;99.90;;;;;;5093079;28;20044;-62
2023/10/22 00:42:10;;;;;;;0.30;0.30;;;12.60;99.90;;;;;;5091818;28;20044;-62
2023/10/22 00:44:35;;;;;;;;;;;12.60;99.90;;;;;;5092157;28;20365;-62
2023/10/22 00:47:05;;;;;;;0.10;0.10;;;12.70;99.90;;;;;;5092622;28;20015;-61
2023/10/22 00:49:32;;;;;;;0.10;0.10;;;12.70;99.90;;;;;;5092714;28;20507;-62
2023/10/22 00:51:58;;;;;;;0.38;0.38;;;12.60;99.90;;;;;;5092493;28;20504;-62
2023/10/22 00:54:27;;;;;;;;;;;12.70;99.90;;;;;;5093164;28;20464;-61
2023/10/22 00:56:53;;;;;;;0.10;0.10;;;12.70;99.90;;;;;;5092842;28;19923;-62
2023/10/22 00:59:20;;;;;;;0.45;0.45;;;12.80;99.90;;;;;;5092590;28;20054;-63
2023/10/22 01:01:47;;;;;;;0.10;0.10;;;12.80;99.90;;;;;;5092075;28;20051;-62
2023/10/22 01:04:12;;;;;;;0.20;0.20;;;12.70;99.90;;;;;;5092557;28;20666;-62
2023/10/22 01:06:39;;;;;;;0.30;0.30;;;12.60;99.90;;;;;;5092104;28;20091;-61
2023/10/22 01:09:06;;;;;;;0.10;0.10;;;12.40;99.90;;;;;;5092399;28;20062;-62
2023/10/22 01:11:33;;;;;;;0.10;0.10;;;12.30;99.90;;;;;;5092084;28;20089;-63
2023/10/22 01:13:58;;;;;;;0.10;0.10;;;12.30;99.90;;;;;;5091198;28;20399;-62
2023/10/22 01:16:24;;;;;;;0.10;0.10;;;12.50;99.90;;;;;;5092288;28;20036;-61
2023/10/22 01:18:50;;;;;;;;;;;12.40;99.90;;;;;;5092701;28;20040;-61
2023/10/22 01:21:15;;;;;;;0.10;0.10;;;12.40;99.90;;;;;;5074434;28;19920;-62
2023/10/22 01:23:41;;;;;;;0.25;0.25;;;12.50;99.90;;;;;;5092597;28;20050;-61
2023/10/22 01:26:08;;;;;;;0.20;0.20;;;12.70;99.90;;;;;;5092425;28;20564;-61
2023/10/22 01:28:34;;;;;;;0.30;0.30;;;12.80;99.90;;;;;;5092272;28;20048;-62
2023/10/22 01:31:00;;;;;;;0.10;0.10;;;12.50;99.90;;;;;;5092030;28;20044;-62
2023/10/22 01:33:26;;;;;;;0.20;0.20;;;12.30;99.90;;;;;;5091976;28;20036;-62
2023/10/22 01:35:52;;;;;;;0.55;0.55;;;12.70;99.90;;;;;;5092047;28;20038;-62
2023/10/22 01:38:18;;;;;;;0.10;0.10;;;12.40;99.90;;;;;;5092298;28;20090;-63
2023/10/22 01:40:44;;;;;;;0.20;0.20;;;12.70;99.90;;;;;;5091477;28;20048;-63
2023/10/22 01:43:09;;;;;;;;;;;12.80;99.90;;;;;;5092402;28;20127;-62
2023/10/22 01:45:35;;;;;;;0.10;0.10;;;12.50;99.90;;;;;;5091556;28;20022;-61
2023/10/22 01:48:01;;;;;;;0.30;0.30;;;12.60;99.90;;;;;;5090706;28;20088;-62
2023/10/22 01:50:26;;;;;;;0.20;0.20;;;12.40;99.90;;;;;;5091651;28;20040;-61
2023/10/22 01:52:52;;;;;;;0.35;0.35;;;12.50;99.90;;;;;;5091609;28;20142;-61
2023/10/22 01:55:18;;;;;;;0.20;0.20;;;12.30;99.90;;;;;;5091364;28;20123;-62
2023/10/22 01:57:44;;;;;;;0.20;0.20;;;12.50;99.90;;;;;;5090493;28;20049;-62
2023/10/22 02:00:11;;;;;;;0.10;0.10;;;12.10;99.90;;;;;;5091380;28;20075;-62
2023/10/22 02:02:38;;;;;;;0.98;0.25;;;12.20;99.90;;;;;;5091487;28;20044;-62
2023/10/22 02:05:04;;;;;;;0.10;0.10;;;12.70;99.90;;;;;;5091138;28;20067;-61
2023/10/22 02:07:29;;;;;;;0.20;0.20;;;12.30;99.90;;;;;;5091494;28;20056;-61
2023/10/22 02:09:56;;;;;;;0.20;0.20;;;12.50;99.90;;;;;;5091340;28;20105;-62
2023/10/22 02:12:29;;;;;;;0.35;0.32;;;12.20;99.90;;;;;;5091340;28;20058;-61
2023/10/22 02:14:55;;;;;;;0.10;0.10;;;12.30;99.90;;;;;;5091072;28;20036;-61
2023/10/22 02:17:21;;;;;;;0.10;0.10;;;11.60;99.90;;;;;;5091572;28;20499;-61
2023/10/22 02:19:46;;;;;;;0.43;0.35;;;12.30;99.90;;;;;;5091068;28;20124;-62
2023/10/22 02:22:12;;;;;;;0.10;0.10;;;12.40;99.90;;;;;;5091177;28;20040;-61
2023/10/22 02:24:39;;;;;;;1.88;0.85;;;12.00;99.90;;;;;;5090291;28;20181;-63
2023/10/22 02:27:05;;;;;;;0.10;0.10;;;12.10;99.90;;;;;;5091054;28;20096;-62
2023/10/22 02:29:31;;;;;;;0.10;0.10;;;12.00;99.90;;;;;;5091223;28;20142;-63
2023/10/22 02:31:57;;;;;;;0.20;0.20;;;11.80;99.90;;;;;;5091244;28;20056;-62
2023/10/22 02:34:22;;;;;;;1.15;0.52;;;12.00;99.90;;;;;;5090837;28;20048;-62
2023/10/22 02:36:48;;;;;;;0.10;0.10;;;11.80;99.90;;;;;;5090938;28;20479;-63
2023/10/22 02:39:14;;;;;;;0.30;0.30;;;12.10;99.90;;;;;;5091306;28;20598;-62
2023/10/22 02:41:40;;;;;;;0.28;0.28;;;11.90;99.90;;;;;;5091179;28;20093;-62
2023/10/22 02:44:05;;;;;;;0.45;0.30;;;12.10;99.90;;;;;;5090925;28;20132;-61
2023/10/22 02:46:31;;;;;;;0.20;0.20;;;12.30;99.90;;;;;;5090968;28;20119;-61
2023/10/22 02:48:58;;;;;;;0.10;0.10;;;11.70;99.90;;;;;;5089605;28;20124;-61
2023/10/22 02:51:24;;;;;;;0.30;0.30;;;11.80;99.90;;;;;;5091272;28;20047;-62
2023/10/22 02:53:50;;;;;;;0.30;0.30;;;11.40;99.90;;;;;;5090573;28;20036;-62
2023/10/22 02:56:15;;;;;;;0.43;0.43;;;12.10;99.90;;;;;;5091113;28;20044;-63
2023/10/22 02:58:41;;;;;;;0.40;0.40;;;12.00;99.90;;;;;;5090655;28;20510;-61
2023/10/22 03:01:09;;;;;;;0.20;0.20;;;11.70;99.90;;;;;;5091076;28;20043;-62
2023/10/22 03:03:42;;;;;;;0.68;0.68;;;12.20;99.90;;;;;;5090497;28;20040;-62
2023/10/22 03:06:09;;;;;;;0.30;0.30;;;11.40;99.90;;;;;;5090676;28;20056;-62
2023/10/22 03:08:37;;;;;;;0.20;0.20;;;11.30;99.90;;;;;;5090844;28;20117;-62
2023/10/22 03:11:04;;;;;;;0.10;0.10;;;11.80;99.90;;;;;;5090286;28;20058;-62
2023/10/22 03:13:31;;;;;;;0.45;0.30;;;11.20;99.90;;;;;;5090991;28;20048;-62
2023/10/22 03:15:59;;;;;;;0.20;0.20;;;11.70;99.90;;;;;;5090856;28;20469;-62
2023/10/22 03:18:26;;;;;;;0.20;0.20;;;12.20;99.90;;;;;;5091004;28;20119;-62
2023/10/22 03:20:52;;;;;;;0.20;0.20;;;11.20;99.90;;;;;;5090721;28;20055;-62
2023/10/22 03:23:17;;;;;;;0.35;0.35;;;11.40;99.90;;;;;;5090425;28;20381;-62
2023/10/22 03:25:43;;;;;;;0.20;0.20;;;11.90;99.90;;;;;;5090475;28;20385;-64
2023/10/22 03:28:10;;;;;;;0.20;0.20;;;11.90;99.90;;;;;;5090507;28;20067;-62
2023/10/22 03:30:38;;;;;;;0.20;0.20;;;11.20;99.90;;;;;;5090463;28;20040;-62
2023/10/22 03:33:05;;;;;;;0.30;0.30;;;12.20;99.90;;;;;;5090643;28;20055;-62
2023/10/22 03:35:31;;;;;;;;;;;11.40;99.90;;;;;;5093282;28;20055;-62
2023/10/22 03:37:57;;;;;;;0.20;0.20;;;12.10;99.90;;;;;;5094005;28;20299;-61
2023/10/22 03:40:22;;;;;;;0.20;0.20;;;11.50;99.90;;;;;;5094264;28;20044;-62
2023/10/22 03:42:48;;;;;;;0.17;0.17;;;11.70;99.90;;;;;;5094353;28;20048;-61
2023/10/22 03:45:14;;;;;;;0.10;0.10;;;12.00;99.90;;;;;;5094065;28;20047;-62
2023/10/22 03:47:39;;;;;;;0.35;0.35;;;11.20;99.90;;;;;;5094149;28;20132;-62
2023/10/22 03:50:06;;;;;;;0.40;0.40;;;11.80;99.90;;;;;;5093545;28;20048;-62
2023/10/22 03:52:31;;;;;;;0.10;0.10;;;11.90;99.90;;;;;;5093763;28;20055;-62
2023/10/22 03:54:57;;;;;;;0.28;0.28;;;12.10;99.90;;;;;;5093885;28;20044;-61
2023/10/22 03:57:23;;;;;;;0.13;0.13;;;11.60;99.90;;;;;;5094262;28;20098;-61
2023/10/22 03:59:48;;;;;;;0.45;0.28;;;11.60;99.90;;;;;;5093224;28;20051;-61
2023/10/22 04:02:14;;;;;;;0.38;0.38;;;11.50;99.90;;;;;;5093877;28;20051;-62
2023/10/22 04:04:40;;;;;;;0.30;0.30;;;12.30;99.90;;;;;;5092155;28;20067;-62
2023/10/22 04:07:06;;;;;;;0.30;0.30;;;11.10;99.90;;;;;;5093544;28;20096;-61
2023/10/22 04:09:31;;;;;;;1.45;0.47;;;11.20;99.90;;;;;;5093644;28;20052;-62
2023/10/22 04:11:57;;;;;;;0.10;0.10;;;12.30;99.90;;;;;;5092147;28;20160;-63
2023/10/22 04:14:22;;;;;;;0.20;0.20;;;12.00;99.90;;;;;;5093490;28;20051;-62
2023/10/22 04:16:51;;;;;;;0.20;0.20;;;12.40;99.90;;;;;;5093140;28;20046;-61
2023/10/22 04:19:17;;;;;;;0.20;0.20;;;11.00;99.90;;;;;;5092226;28;21116;-62
2023/10/22 04:21:42;;;;;;;0.20;0.20;;;11.50;99.90;;;;;;5081372;28;20075;-62
2023/10/22 04:24:08;;;;;;;0.30;0.30;;;11.60;99.90;;;;;;5093293;28;20048;-62
2023/10/22 04:26:34;;;;;;;0.32;0.32;;;12.10;99.90;;;;;;5093468;28;20040;-62
2023/10/22 04:29:01;;;;;;;0.20;0.20;;;11.80;99.90;;;;;;5093134;28;20051;-62
2023/10/22 04:31:26;;;;;;;0.10;0.10;;;12.30;99.90;;;;;;5093171;28;20040;-62
2023/10/22 04:33:53;;;;;;;1.17;0.43;;;11.40;99.90;;;;;;5091735;28;20419;-62
2023/10/22 04:36:22;;;;;;;0.10;0.10;;;12.00;99.90;;;;;;5093191;28;20039;-62
2023/10/22 04:38:48;;;;;;;0.30;0.30;;;12.20;99.90;;;;;;5092431;28;20547;-61
2023/10/22 04:41:14;;;;;;;0.20;0.20;;;12.60;99.90;;;;;;5093131;28;20139;-62
2023/10/22 04:43:41;;;;;;;0.20;0.20;;;12.10;99.90;;;;;;5091446;28;20070;-62
2023/10/22 04:46:06;;;;;;;0.20;0.20;;;11.90;99.90;;;;;;5092013;28;20119;-62
2023/10/22 04:48:32;;;;;;;0.20;0.20;;;11.50;99.90;;;;;;5091392;28;20198;-61
2023/10/22 04:51:03;;;;;;;0.15;0.15;;;11.60;99.90;;;;;;5092743;28;20051;-61
2023/10/22 04:53:29;;;;;;;0.20;0.20;;;12.30;99.90;;;;;;5092488;28;20036;-62
2023/10/22 04:55:58;;;;;;;0.20;0.20;;;11.70;99.90;;;;;;5093042;28;20116;-62
2023/10/22 04:58:27;;;;;;;0.10;0.10;;;12.40;99.90;;;;;;5093214;28;20047;-62
2023/10/22 05:00:53;;;;;;;0.75;0.32;;;10.90;99.90;;;;;;5092585;28;20048;-61
2023/10/22 05:03:19;;;;;;;0.20;0.20;;;12.00;99.90;;;;;;5092385;28;20395;-62
2023/10/22 05:05:44;;;;;;;0.10;0.10;;;12.20;99.90;;;;;;5092856;28;20066;-62
2023/10/22 05:08:10;;;;;;;0.10;0.10;;;11.80;99.90;;;;;;5092408;28;20048;-63
2023/10/22 05:10:38;;;;;;;0.20;0.20;;;12.40;99.90;;;;;;5092994;28;20403;-62
2023/10/22 05:13:04;;;;;;;0.10;0.10;;;11.90;99.90;;;;;;5092645;28;20052;-61
2023/10/22 05:15:29;;;;;;;0.30;0.30;;;12.30;99.90;;;;;;5092560;28;20433;-62
2023/10/22 05:17:57;;;;;;;0.17;0.17;;;11.80;99.90;;;;;;5091094;28;20055;-62
2023/10/22 05:20:27;;;;;;;0.17;0.17;;;12.40;99.90;;;;;;5092263;28;20055;-62
2023/10/22 05:22:53;;;;;;;0.30;0.30;;;12.60;99.90;;;;;;5092264;28;20124;-62
2023/10/22 05:25:20;;;;;;;0.20;0.20;;;12.80;99.90;;;;;;5092155;28;20492;-61
2023/10/22 05:27:46;;;;;;;0.10;0.10;;;12.50;99.90;;;;;;5092027;28;20077;-62
2023/10/22 05:30:13;;;;;;;0.28;0.28;;;12.50;99.90;;;;;;5092067;28;20052;-63
2023/10/22 05:32:38;;;;;;;0.20;0.20;;;11.40;99.90;;;;;;5091769;28;20044;-62
2023/10/22 05:35:04;;;;;;;0.38;0.38;;;12.80;99.90;;;;;;5092044;28;20154;-61
2023/10/22 05:37:30;;;;;;;0.70;0.70;;;12.90;99.90;;;;;;5092232;28;20701;-61
2023/10/22 05:39:56;;;;;;;0.30;0.30;;;12.80;99.90;;;;;;5092010;28;20044;-62
2023/10/22 05:42:22;;;;;;;0.30;0.30;;;12.70;99.90;;;;;;5090212;28;20050;-63
2023/10/22 05:44:47;;;;;;;0.40;0.40;;;12.30;99.90;;;;;;5091854;28;20048;-62
2023/10/22 05:47:13;;;;;;;0.40;0.40;;;11.20;99.90;;;;;;5091468;28;20104;-62
2023/10/22 05:49:39;;;;;;;0.55;0.55;;;11.80;99.90;;;;;;5091565;28;20055;-62
2023/10/22 05:52:05;;;;;;;0.93;0.93;;;11.50;99.90;;;;;;5091419;28;20050;-62
2023/10/22 05:54:30;;;;;;;0.65;0.65;;;11.70;99.90;;;;;;5091906;28;20052;-62
2023/10/22 05:56:56;;;;;;;0.63;0.63;;;13.00;99.90;;;;;;5091413;28;20119;-62
2023/10/22 05:59:22;;;;;;;0.57;0.57;;;12.90;99.90;;;;;;5091281;28;20044;-61
2023/10/22 06:01:47;;;;;;;1.20;0.93;;;13.00;99.90;;;;;;5091111;28;20404;-62
2023/10/22 06:04:13;;;;;;;0.40;0.40;;;12.10;99.90;;;;;;5091667;28;20101;-61
2023/10/22 06:06:39;;;;;;;1.15;0.35;;;12.20;99.90;;;;;;5091308;28;20093;-62
2023/10/22 06:09:04;;;;;;;0.38;0.38;;;12.70;99.90;;;;;;5091434;28;20117;-62
2023/10/22 06:11:30;;;;;;;0.40;0.40;;;12.00;99.90;;;;;;5091284;28;20056;-62
2023/10/22 06:13:56;;;;;;;0.50;0.50;;;13.10;99.90;;;;;;5091182;28;20107;-62
2023/10/22 06:16:23;;;;;;;0.10;0.10;;;12.90;99.90;;;;;;5091195;28;20066;-61
2023/10/22 06:18:49;;;;;;;0.15;0.15;;;11.70;99.90;;;;;;5091041;28;20084;-60
2023/10/22 06:21:15;;;;;;;0.20;0.20;;;11.40;99.90;;;;;;5091190;28;20090;-61
2023/10/22 06:23:42;;;;;;;0.10;0.10;;;12.40;99.90;;;;;;5090473;28;20693;-62
2023/10/22 06:26:12;;;;;;;1.52;1.13;;;12.90;99.90;;;;;;5090834;28;20036;-61
2023/10/22 06:28:41;;;;;;;4.00;0.52;;;11.60;99.90;;;;;;5091395;28;20048;-61
2023/10/22 06:31:11;;;;;;;0.10;0.10;;;11.40;99.90;;;;;;5091188;28;20047;-63
2023/10/22 06:33:38;;;;;;;0.20;0.20;;;12.40;99.90;;;;;;5091466;28;20052;-61
2023/10/22 06:36:14;;;;;;;0.15;0.15;;;12.40;99.90;;;;;;5090667;28;20051;-61
2023/10/22 06:38:39;;;;;;;0.20;0.20;;;11.30;99.90;;;;;;5090993;28;20044;-61
2023/10/22 06:41:11;;;;;;;0.10;0.10;;;12.20;99.90;;;;;;5091057;28;20040;-62
2023/10/22 06:43:36;;;;;;;0.63;0.52;;;12.50;99.90;;;;;;5090661;28;20083;-62
2023/10/22 06:46:02;;;;;;;0.40;0.40;;;11.10;99.90;;;;;;5091147;28;20079;-62
2023/10/22 06:48:29;;;;;;;0.20;0.20;;;11.70;99.90;;;;;;5090970;28;20055;-61
2023/10/22 06:50:55;;;;;;;0.28;0.28;;;11.30;99.90;;;;;;5091004;28;20408;-61
2023/10/22 06:53:21;;;;;;;0.20;0.20;;;12.40;99.90;;;;;;5090599;28;20052;-61
2023/10/22 06:55:46;;;;;;;0.40;0.40;;;12.20;99.90;;;;;;5090803;28;20051;-64
2023/10/22 06:58:12;;;;;;;0.30;0.30;;;11.10;99.90;;;;;;5090609;28;20039;-62
2023/10/22 07:00:38;;;;;;;0.30;0.30;;;12.00;99.90;;;;;;5091221;28;20075;-61
2023/10/22 07:03:03;;;;;;;0.35;0.35;;;11.30;99.90;;;;;;5091188;28;20053;-61
2023/10/22 07:05:29;;;;;;;0.20;0.20;;;11.50;99.90;;;;;;5077293;28;20067;-63
2023/10/22 07:07:55;;;;;;;0.10;0.10;;;12.10;99.90;;;;;;5088681;28;20101;-62
2023/10/22 07:10:21;;;;;;;0.10;0.10;;;12.10;99.90;;;;;;5092400;28;20043;-62
2023/10/22 07:12:46;;;;;;;0.38;0.38;;;12.20;99.90;;;;;;5094288;28;20370;-61
2023/10/22 07:15:12;;;;;;;0.20;0.20;;;11.50;99.90;;;;;;5094435;28;20086;-62
2023/10/22 07:17:38;;;;;;;0.10;0.10;;;11.40;99.90;;;;;;5094339;28;20078;-61
2023/10/22 07:20:06;;;;;;;0.40;0.40;;;12.00;99.90;;;;;;5094169;28;20098;-61
2023/10/22 07:22:33;;;;;;;0.20;0.20;;;11.80;99.90;;;;;;5093294;28;20047;-61
2023/10/22 07:24:58;;;;;;;0.25;0.25;;;11.50;99.90;;;;;;5094389;28;20122;-62
2023/10/22 07:27:24;;;;;;;0.20;0.20;;;12.10;99.90;;;;;;5093532;28;20556;-61
2023/10/22 07:29:50;;;;;;;0.10;0.10;;;11.40;99.90;;;;;;5094252;28;20092;-60
2023/10/22 07:32:15;;;;;;;0.30;0.30;;;11.90;99.90;;;;;;5091764;28;20496;-61
2023/10/22 07:34:41;;;;;;;0.30;0.30;;;11.70;99.90;;;;;;5072808;28;20088;-61
2023/10/22 07:37:07;;;;;;;0.22;0.22;;;11.90;99.90;;;;;;5089652;28;20511;-63
2023/10/22 07:39:33;;;;;;;0.20;0.20;;;11.80;99.90;;;;;;5093585;28;20059;-62
2023/10/22 07:41:59;;;;;;;0.20;0.20;;;11.50;99.90;;;;;;5087879;28;20097;-64
2023/10/22 07:44:25;;;;;;;0.75;0.45;;;11.70;99.90;;;;;;5076223;28;20408;-61
2023/10/22 07:46:51;;;;;;;0.10;0.10;;;12.20;99.90;;;;;;5091759;28;20044;-60
2023/10/22 07:49:16;;;;;;;0.20;0.20;;;12.00;99.90;;;;;;5085382;28;20545;-61
2023/10/22 07:51:42;;;;;;;0.35;0.35;;;12.10;99.90;;;;;;5092762;28;20052;-61
2023/10/22 07:54:08;;;;;;;0.68;0.68;;;11.50;99.90;;;;;;5091550;28;20104;-61
2023/10/22 07:56:34;;;;;;;0.35;0.35;;;12.00;99.90;;;;;;5091724;28;20051;-62
2023/10/22 07:59:00;;;;;;;0.10;0.10;;;11.40;99.90;;;;;;5092877;28;20113;-62
2023/10/22 08:01:26;;;;;;;0.57;0.57;;;11.80;99.90;;;;;;5092607;28;20500;-62
2023/10/22 08:03:52;;;;;;;0.20;0.20;;;12.10;99.90;;;;;;5093402;28;20055;-61
2023/10/22 08:06:17;;;;;;;5.82;0.43;;;12.00;99.90;;;;;;5092730;28;20116;-62
2023/10/22 08:08:43;;;;;;;0.25;0.25;;;11.50;99.90;;;;;;5093739;28;20048;-61
2023/10/22 08:11:09;;;;;;;0.28;0.28;;;11.70;99.90;;;;;;5092827;28;20535;-62
2023/10/22 08:13:34;;;;;;;0.20;0.20;;;11.70;99.90;;;;;;5092915;28;20048;-61
2023/10/22 08:16:04;;;;;;;0.75;0.75;;;12.00;99.90;;;;;;5091900;28;20233;-61
2023/10/22 08:18:30;;;;;;;0.30;0.30;;;12.40;99.90;;;;;;5093548;28;20054;-61
2023/10/22 08:21:08;;;;;;;0.30;0.30;;;12.40;99.90;;;;;;5092164;28;20056;-63
2023/10/22 08:23:34;;;;;;;0.25;0.25;;;11.50;99.90;;;;;;5093144;28;20048;-61
2023/10/22 08:25:59;;;;;;;4.20;1.85;;;12.30;99.90;;;;;;5085944;28;20036;-61
2023/10/22 08:28:25;;;;;;;1.55;0.55;;;11.80;99.90;;;;;;5086875;28;20051;-61
2023/10/22 08:30:51;;;;;;;0.30;0.30;;;12.60;99.90;;;;;;5091015;28;20046;-61
2023/10/22 08:33:17;;;;;;;0.40;0.40;;;12.30;99.90;;;;;;5089368;28;20044;-63
2023/10/22 08:35:43;;;;;;;0.10;0.10;;;12.70;99.90;;;;;;5089999;28;20119;-61
2023/10/22 08:38:09;;;;;;;0.20;0.20;;;11.90;99.90;;;;;;5092924;28;20539;-63
2023/10/22 08:40:38;;;;;;;0.50;0.50;;;12.20;99.90;;;;;;5092130;28;20097;-61
2023/10/22 08:43:16;;;;;;;0.28;0.28;;;12.30;99.90;;;;;;5092455;28;20047;-61
2023/10/22 08:45:45;;;;;;;0.20;0.20;;;12.50;99.90;;;;;;5092350;28;20051;-61
2023/10/22 08:48:13;;;;;;;0.25;0.25;;;12.40;99.90;;;;;;5092375;28;20048;-61
2023/10/22 08:50:43;;;;;;;0.20;0.20;;;12.60;99.90;;;;;;5092602;28;20072;-61
2023/10/22 08:53:12;;;;;;;5.95;0.40;;;12.50;99.90;;;;;;5090082;28;20048;-65
2023/10/22 08:55:43;;;;;;;0.20;0.20;;;12.30;99.90;;;;;;5084830;28;20044;-61
2023/10/22 08:58:08;;;;;;;0.30;0.30;;;12.80;99.90;;;;;;5091495;28;20064;-61
2023/10/22 09:00:35;;;;;;;0.20;0.20;;;12.10;99.90;;;;;;5091824;28;20051;-62
2023/10/22 09:03:00;;;;;;;0.22;0.22;;;12.70;99.90;;;;;;5091654;28;20055;-61
2023/10/22 09:05:26;;;;;;;0.20;0.20;;;12.60;99.90;;;;;;5091422;28;20052;-60
2023/10/22 09:07:53;;;;;;;0.60;0.60;;;12.60;99.90;;;;;;5091837;28;20055;-62
2023/10/22 09:10:28;;;;;;;1.98;0.47;;;12.30;99.90;;;;;;5090938;28;20510;-62
2023/10/22 09:12:54;;;;;;;0.20;0.20;;;12.90;99.90;;;;;;5089268;28;20694;-61
2023/10/22 09:15:20;;;;;;;;;;;12.80;99.90;;;;;;5091812;28;20044;-62
2023/10/22 09:17:45;;;;;;;0.32;0.32;;;12.80;99.90;;;;;;5091535;28;19930;-62
2023/10/22 09:20:22;;;;;;;0.20;0.20;;;13.30;99.90;;;;;;5091543;28;20530;-62
2023/10/22 09:22:48;;;;;;;0.20;0.20;;;13.00;99.90;;;;;;5082280;28;20044;-62
2023/10/22 09:25:16;;;;;;;0.50;0.50;;;13.00;99.90;;;;;;5086332;28;20067;-63
2023/10/22 09:27:42;;;;;;;0.88;0.52;;;12.60;99.90;;;;;;5091254;28;20483;-63
2023/10/22 09:30:08;;;;;;;0.20;0.20;;;12.80;99.90;;;;;;5091368;28;20097;-62
2023/10/22 09:32:33;;;;;;;0.75;0.75;;;12.90;99.90;;;;;;5089839;28;20090;-63
2023/10/22 09:35:13;;;;;;;0.20;0.20;;;13.20;99.90;;;;;;5091919;28;20456;-62
2023/10/22 09:37:53;;;;;;;0.10;0.10;;;13.10;99.90;;;;;;5090849;28;20057;-62
2023/10/22 09:40:22;;;;;;;0.20;0.20;;;12.80;99.90;;;;;;5091329;28;20079;-61
2023/10/22 09:42:49;;;;;;;0.10;0.10;;;13.10;99.90;;;;;;5079934;28;20051;-61
2023/10/22 09:45:16;;;;;;;0.20;0.20;;;13.20;99.90;;;;;;5091387;28;20062;-61
2023/10/22 09:47:46;;;;;;;1.85;0.88;;;12.90;99.90;;;;;;5097085;28;20043;-62
2023/10/22 09:50:18;;;;;;;0.20;0.20;;;12.70;99.90;;;;;;5090729;28;20168;-64
2023/10/22 09:52:44;;;;;;;2.15;0.15;;;12.80;99.90;;;;;;5091043;28;20071;-64
2023/10/22 09:55:13;;;;;;;;;;;12.70;99.90;;;;;;5091661;28;20111;-61
2023/10/22 09:57:40;;;;;;;1.83;0.50;;;12.40;99.90;;;;;;5090995;28;20371;-62
2023/10/22 10:00:15;;;;;;;0.15;0.13;;;12.30;99.90;;;;;;5091675;28;20044;-62
2023/10/22 10:02:42;;;;;;;0.20;0.20;;;12.30;99.90;;;;;;5091565;28;20048;-62
2023/10/22 10:05:10;;;;;;;0.20;0.20;;;12.80;99.90;;;;;;5089357;28;20069;-62
2023/10/22 10:07:40;;;;;;;0.20;0.20;;;13.00;99.90;;;;;;5091821;28;20056;-62
2023/10/22 10:10:08;;;;;;;0.10;0.10;;;13.20;99.90;;;;;;5090836;28;20044;-62
2023/10/22 10:12:40;;;;;;;0.20;0.20;;;13.40;99.90;;;;;;5091338;28;20153;-62
2023/10/22 10:15:06;;;;;;;0.10;0.10;;;13.30;99.90;;;;;;5091176;28;20040;-61
2023/10/22 10:17:49;;;;;;;;;;;13.30;99.90;;;;;;5091522;28;20047;-62
2023/10/22 10:20:32;;;;;;;0.10;0.10;;;13.00;99.90;;;;;;5091322;28;19920;-63
2023/10/22 10:23:09;;;;;;;0.10;0.10;;;13.40;99.90;;;;;;5089648;28;20182;-63
2023/10/22 10:25:38;;;;;;;0.50;0.30;;;13.40;99.90;;;;;;5083590;28;20049;-62
2023/10/22 10:28:09;;;;;;;0.32;0.32;;;13.60;99.90;;;;;;5078006;28;20043;-63
2023/10/22 10:30:35;;;;;;;0.20;0.20;;;13.60;99.90;;;;;;5090958;28;20044;-64
2023/10/22 10:33:01;;;;;;;0.15;0.15;;;13.30;99.90;;;;;;5091096;28;20039;-62
2023/10/22 10:35:28;;;;;;;0.10;0.10;;;13.30;99.90;;;;;;5090157;28;20423;-62
2023/10/22 10:38:18;;;;;;;0.10;0.10;;;13.30;99.90;;;;;;5091236;28;20048;-61
2023/10/22 10:40:46;;;;;;;0.10;0.10;;;13.30;99.90;;;;;;5074659;28;20052;-62
2023/10/22 10:43:12;;;;;;;0.20;0.20;;;13.60;99.90;;;;;;5091409;28;20048;-62
2023/10/22 10:45:41;;;;;;;0.43;0.43;;;13.90;99.90;;;;;;5093534;28;20044;-63
2023/10/22 10:48:27;;;;;;;0.10;0.10;;;13.90;99.90;;;;;;5095361;28;20105;-62
2023/10/22 10:51:19;;;;;;;0.28;0.22;;;13.80;99.90;;;;;;5091406;28;20674;-62
2023/10/22 10:54:12;;;;;;;0.10;0.10;;;13.70;99.90;;;;;;5094969;28;20052;-63
2023/10/22 10:56:49;;;;;;;0.30;0.30;;;14.10;99.90;;;;;;5093762;28;20056;-62
2023/10/22 10:59:31;;;;;;;0.10;0.10;;;14.10;99.90;;;;;;5093046;28;20047;-63
2023/10/22 11:02:01;;;;;;;0.28;0.28;;;14.20;99.90;;;;;;5095178;28;20462;-62
2023/10/22 11:04:28;;;;;;;0.10;0.10;;;13.90;99.90;;;;;;5094572;28;20052;-62
2023/10/22 11:06:55;;;;;;;0.10;0.10;;;13.70;99.90;;;;;;5094288;28;20060;-63
2023/10/22 11:09:21;;;;;;;0.10;0.10;;;13.30;99.90;;;;;;5078852;28;20509;-62
2023/10/22 11:12:05;;;;;;;;;;;13.00;99.90;;;;;;5082930;28;20526;-62
2023/10/22 11:14:35;;;;;;;0.10;0.10;;;13.00;99.90;;;;;;5094622;28;19930;-61
2023/10/22 11:17:02;;;;;;;0.43;0.43;;;12.80;99.90;;;;;;5095060;28;20048;-62
2023/10/22 11:19:29;;;;;;;0.10;0.10;;;13.00;99.90;;;;;;5094044;28;20051;-62
2023/10/22 11:21:56;;;;;;;0.20;0.20;;;12.50;99.90;;;;;;5094773;28;20052;-63
2023/10/22 11:24:33;;;;;;;0.20;0.20;;;12.60;99.90;;;;;;5093741;28;20059;-63
2023/10/22 11:27:02;;;;;;;0.00;0.00;;;12.80;99.90;;;;;;5094566;28;20048;-62
2023/10/22 11:29:28;;;;;;;0.10;0.10;;;12.80;99.90;;;;;;5089698;28;20115;-62
2023/10/22 11:31:58;;;;;;;0.30;0.30;;;12.70;99.90;;;;;;5079916;28;20051;-62
2023/10/22 11:34:27;;;;;;;0.30;0.30;;;12.60;99.90;;;;;;5093896;28;20051;-62
2023/10/22 11:36:57;;;;;;;0.10;0.10;;;12.60;99.90;;;;;;5093885;28;20044;-65
2023/10/22 11:39:31;;;;;;;0.13;0.13;;;12.50;99.90;;;;;;5093854;28;20040;-62
2023/10/22 11:42:00;;;;;;;0.10;0.10;;;12.40;99.90;;;;;;5093732;28;20052;-61
2023/10/22 11:44:33;;;;;;;0.57;0.57;;;12.40;99.90;;;;;;5094376;28;20050;-61
2023/10/22 11:47:01;;;;;;;0.15;0.15;;;12.30;99.90;;;;;;5093848;28;20036;-62
2023/10/22 11:49:27;;;;;;;0.17;0.15;;;12.40;99.90;;;;;;5093940;28;20044;-62
2023/10/22 11:51:53;;;;;;;;;;;12.60;99.90;;;;;;5083753;28;20036;-61
2023/10/22 11:54:19;;;;;;;0.10;0.10;;;12.20;99.90;;;;;;5083380;28;19924;-63
2023/10/22 11:56:46;;;;;;;0.10;0.10;;;12.70;99.90;;;;;;5093443;28;20152;-62
2023/10/22 11:59:11;;;;;;;;;;;13.00;99.90;;;;;;5088371;28;20052;-62
2023/10/22 12:01:40;;;;;;;0.10;0.10;;;13.30;99.90;;;;;;5088249;28;20041;-62
2023/10/22 12:04:06;;;;;;;0.10;0.10;;;13.10;99.90;;;;;;5084421;28;20049;-64
2023/10/22 12:06:31;;;;;;;0.10;0.10;;;13.40;99.90;;;;;;5089153;28;20099;-62
2023/10/22 12:08:57;;;;;;;0.10;0.10;;;13.20;99.90;;;;;;5093087;28;20091;-62
2023/10/22 12:11:23;;;;;;;0.20;0.20;;;13.20;99.90;;;;;;5093117;28;20127;-63
2023/10/22 12:13:48;;;;;;;0.20;0.20;;;13.30;99.90;;;;;;5092821;28;20060;-62
2023/10/22 12:16:14;;;;;;;0.10;0.10;;;13.60;99.90;;;;;;5092910;28;20476;-63
2023/10/22 12:18:40;;;;;;;;;;;13.70;99.90;;;;;;5092307;28;20048;-62
2023/10/22 12:21:05;;;;;;;0.00;0.00;;;13.80;99.90;;;;;;5092701;28;19935;-62
2023/10/22 12:23:31;;;;;;;3.00;1.45;;;13.60;99.90;;;;;;5093463;28;20101;-63
2023/10/22 12:25:57;;;;;;;0.10;0.10;;;13.70;99.90;;;;;;5092732;28;20035;-62
2023/10/22 12:28:24;;;;;;;;;;;14.50;99.90;;;;;;5093571;28;20079;-62
2023/10/22 12:30:50;;;;;;;0.00;0.00;;;14.90;99.90;;;;;;5093134;28;19922;-62
2023/10/22 12:33:16;;;;;;;;;;;14.90;99.90;;;;;;5093405;28;20062;-64
2023/10/22 12:35:41;;;;;;;0.57;0.57;;;14.80;99.90;;;;;;5091930;28;19924;-62
2023/10/22 12:38:07;;;;;;;;;;;15.20;99.90;;;;;;5083790;28;20083;-63
2023/10/22 12:40:34;;;;;;;0.10;0.10;;;15.30;99.90;;;;;;5089356;28;20375;-63
2023/10/22 12:42:59;;;;;;;0.10;0.10;;;15.30;99.90;;;;;;5093045;28;20059;-62
2023/10/22 12:45:25;;;;;;;;;;;15.10;99.90;;;;;;5093218;28;20036;-62
2023/10/22 12:47:51;;;;;;;0.10;0.10;;;15.30;99.90;;;;;;5092594;28;19961;-62
2023/10/22 12:50:16;;;;;;;;;;;15.50;99.90;;;;;;5092863;28;20055;-63